Latest Weather Observations for Coonawarra

IDS60801

Issued at 7:02 pm CST Monday 25 May 2015 (issued every 30 minutes, with the page automatically refreshed every 10 minutes)

About weather observations | Map of weather stations | Latest weather observations for SA | Other Formats
Station Details ID: 026091 Name: COONAWARRA Lat: -37.29 Lon: 140.83 Height: 57.0 m
Data from the previous 72 hours. | See also: Recent months at Coonawarra
Date/Time
CST
Temp
°C
App
Temp
°C
Dew
Point
Rel
Hum
%
Delta-T
°C
Wind Press
QNH
hPa
Press
MSL
hPa
Rain
since 9 am
mm
Dir
 
Spd
km/h
Gust
km/h
Spd
kts
Gust
kts
25/07:00pm 8.2 6.0 6.2 87 0.9 ESE 7 7 4 4 1028.8 1028.8 0.0
25/06:30pm 9.7 7.5 6.0 78 1.7 ESE 7 9 4 5 1028.6 1028.6 0.0
25/06:00pm 10.2 8.1 6.6 78 1.7 ESE 7 7 4 4 1028.6 1028.6 0.0
25/05:30pm 12.0 10.0 6.2 67 2.7 ENE 6 6 3 3 1028.2 1028.2 0.0
25/05:00pm 14.8 12.9 6.8 58 3.9 NE 6 6 3 3 1027.9 1027.9 0.0
25/04:30pm 16.5 14.2 5.7 49 5.2 NE 7 9 4 5 1027.7 1027.7 0.0
25/04:00pm 17.2 14.3 4.7 43 6.0 NE 9 11 5 6 1027.6 1027.6 0.0
25/03:30pm 17.5 14.8 5.5 45 5.8 NE 9 13 5 7 1027.6 1027.6 0.0
25/03:00pm 17.7 14.8 4.9 42 6.1 NNE 9 13 5 7 1027.7 1027.7 0.0
25/02:30pm 17.7 14.5 4.9 42 6.1 NE 11 15 6 8 1027.8 1027.8 0.0
25/02:00pm 17.7 14.8 6.3 47 5.6 NE 11 17 6 9 1027.8 1027.8 0.0
25/01:30pm 17.5 14.3 4.9 43 6.0 N 11 15 6 8 1028.0 1028.0 0.0
25/01:00pm 17.3 14.4 4.6 43 6.0 NNE 9 15 5 8 1028.3 1028.3 0.0
25/12:30pm 16.9 13.8 5.7 47 5.4 N 11 17 6 9 1028.7 1028.7 0.0
25/12:00pm 16.7 13.8 6.5 51 5.0 N 11 15 6 8 1029.0 1029.0 0.0
25/11:30am 15.9 13.0 6.7 54 4.5 NNE 11 17 6 9 1029.5 1029.5 0.0
25/11:00am 15.2 12.4 7.0 58 4.0 N 11 15 6 8 1030.3 1030.3 0.0
25/10:30am 14.6 12.1 6.7 59 3.8 N 9 13 5 7 1030.6 1030.6 0.0
25/10:00am 13.6 11.2 7.0 64 3.2 NNE 9 15 5 8 1030.7 1030.7 0.0
25/09:30am 12.2 9.3 6.5 68 2.7 NNE 11 15 6 8 1030.7 1030.7 0.0
25/09:00am 10.7 8.6 6.6 76 1.9 NE 7 9 4 5 1030.6 1030.6 0.0
25/08:30am 9.0 6.8 6.4 84 1.2 ENE 7 9 4 5 1030.4 1030.4 0.0
25/08:00am 7.2 5.1 5.9 91 0.6 ENE 6 7 3 4 1030.4 1030.4 0.0
25/07:30am 6.9 5.1 5.3 89 0.7 ESE 4 7 2 4 1030.2 1030.2 0.0
25/07:00am 6.9 4.5 5.3 89 0.7 NE 7 9 4 5 1030.0 1030.0 0.0
25/06:30am 6.4 3.2 5.0 91 0.6 NE 11 11 6 6 1029.8 1029.8 0.0
25/06:00am 6.1 3.8 4.7 91 0.6 NNE 6 7 3 4 1029.9 1029.9 0.0
25/05:30am 7.1 4.3 5.3 88 0.8 NNE 9 11 5 6 1029.5 1029.5 0.0
25/05:00am 7.3 4.5 5.3 87 0.9 NNE 9 11 5 6 1029.6 1029.6 0.0
25/04:30am 7.2 4.1 5.4 88 0.8 NE 11 13 6 7 1029.4 1029.4 0.0
25/04:00am 6.6 5.6 5.5 93 0.5 CALM 0 0 0 0 1029.6 1029.6 0.0
25/03:30am 7.3 6.2 5.3 87 0.9 CALM 0 0 0 0 1029.6 1029.6 0.0
25/03:00am 8.3 5.6 5.4 82 1.3 NE 9 9 5 5 1029.5 1029.5 0.0
25/02:30am 8.5 5.8 5.6 82 1.3 NE 9 9 5 5 1029.4 1029.4 0.0
25/02:00am 8.8 6.1 5.5 80 1.5 NNE 9 11 5 6 1029.3 1029.3 0.0
25/01:30am 8.6 5.5 5.5 81 1.4 NE 11 11 6 6 1028.8 1028.8 0.0
25/01:00am 8.7 6.0 5.8 82 1.3 NE 9 9 5 5 1028.7 1028.7 0.0
25/12:30am 8.9 5.8 5.6 80 1.5 NE 11 13 6 7 1029.0 1029.0 0.0
25/12:00am 9.1 6.0 5.6 79 1.6 NE 11 13 6 7 1029.3 1029.3 0.0
 
Date/Time
CST
Temp
°C
App
Temp
°C
Dew
Point
Rel
Hum
%
Delta-T
°C
Wind Press
QNH
hPa
Press
MSL
hPa
Rain
since 9 am
mm
Dir
 
Spd
km/h
Gust
km/h
Spd
kts
Gust
kts
24/11:30pm 8.8 6.1 5.5 80 1.5 NE 9 11 5 6 1029.4 1029.4 0.0
24/11:00pm 8.8 5.7 5.5 80 1.5 NE 11 13 6 7 1029.6 1029.6 0.0
24/10:30pm 8.7 6.0 5.6 81 1.4 NE 9 11 5 6 1029.6 1029.6 0.0
24/10:00pm 8.9 5.9 5.8 81 1.4 NE 11 13 6 7 1029.7 1029.7 0.0
24/09:30pm 8.4 5.4 6.2 86 1.0 NE 11 11 6 6 1030.0 1030.0 0.0
24/09:00pm 8.5 5.7 6.8 89 0.8 ENE 11 11 6 6 1029.9 1029.9 0.0
24/08:30pm 8.3 6.2 6.8 90 0.7 ENE 7 7 4 4 1029.9 1029.9 0.0
24/08:00pm 8.3 6.2 6.6 89 0.8 ENE 7 7 4 4 1029.9 1029.9 0.0
24/07:30pm 8.7 6.8 6.8 88 0.9 E 6 7 3 4 1029.7 1029.7 0.0
24/07:00pm 8.7 6.8 6.8 88 0.9 E 6 6 3 3 1029.6 1029.6 0.0
24/06:30pm 9.5 7.6 6.7 83 1.3 E 6 7 3 4 1029.5 1029.5 0.0
24/06:00pm 9.8 8.0 7.0 83 1.3 E 6 9 3 5 1029.4 1029.4 0.0
24/05:30pm 10.8 8.8 7.2 78 1.7 ENE 7 9 4 5 1029.0 1029.0 0.0
24/05:00pm 11.5 9.1 6.9 73 2.2 NE 9 11 5 6 1028.9 1028.9 0.0
24/04:30pm 12.5 10.6 6.6 67 2.8 N 6 9 3 5 1028.9 1028.9 0.0
24/04:00pm 13.1 11.1 7.1 67 2.9 N 7 9 4 5 1028.8 1028.8 0.0
24/03:30pm 13.1 10.2 6.6 64 3.1 N 11 15 6 8 1028.9 1028.9 0.0
24/03:00pm 13.4 11.0 7.0 65 3.1 N 9 15 5 8 1028.8 1028.8 0.0
24/02:30pm 13.3 10.0 6.4 63 3.3 N 13 17 7 9 1028.9 1028.9 0.0
24/02:00pm 12.8 9.0 6.0 63 3.2 NNE 15 20 8 11 1028.7 1028.7 0.0
24/01:30pm 13.4 9.6 6.0 61 3.5 NNE 15 20 8 11 1028.8 1028.8 0.0
24/01:00pm 12.9 9.5 6.1 63 3.2 NNE 13 20 7 11 1029.3 1029.3 0.0
24/12:30pm 12.3 8.5 5.6 63 3.1 NNE 15 20 8 11 1029.5 1029.5 0.0
24/12:00pm 12.5 9.1 5.9 64 3.1 N 13 17 7 9 1030.0 1030.0 0.0
24/11:30am 12.4 9.5 6.7 68 2.7 N 11 15 6 8 1030.3 1030.3 0.0
24/11:00am 11.4 8.9 6.5 72 2.3 NNW 9 13 5 7 1030.7 1030.7 0.0
24/10:30am 9.7 6.7 6.0 78 1.7 N 11 13 6 7 1030.9 1030.9 0.0
24/10:00am 8.9 6.8 6.5 85 1.1 NE 7 11 4 6 1030.6 1030.6 0.0
24/09:30am 7.4 5.1 5.6 88 0.8 NE 7 13 4 7 1030.7 1030.7 0.0
24/09:00am 6.5 3.7 5.1 91 0.6 NE 9 13 5 7 1030.7 1030.7 0.2
24/08:30am 5.4 2.5 4.7 95 0.3 NE 9 11 5 6 1030.7 1030.7 0.2
24/08:00am 4.6 1.2 4.1 97 0.2 NE 11 13 6 7 1030.3 1030.3 0.2
24/07:30am 1.2 -2.4 0.4 94 0.3 ENE 9 11 5 6 1030.2 1030.2 0.2
24/07:00am 0.4 - - - - CALM 0 0 0 0 1030.0 1030.0 0.2
24/06:30am 0.0 - - - - ENE 2 6 1 3 1030.0 1030.0 0.2
24/06:00am -0.1 - - - - ENE 4 6 2 3 1029.7 1029.7 0.2
24/05:30am 0.0 - - - - CALM 0 0 0 0 1029.7 1029.7 0.2
24/05:00am 0.7 -2.6 0.4 98 0.1 ENE 7 7 4 4 1029.6 1029.6 0.2
24/04:30am 0.9 -1.0 0.3 96 0.2 CALM 0 9 0 5 1029.6 1029.6 0.2
24/04:00am 0.9 -2.2 0.3 96 0.2 WSW 6 6 3 3 1029.4 1029.4 0.2
24/03:30am 0.8 -1.2 0.2 96 0.2 CALM 0 0 0 0 1029.3 1029.3 0.2
24/03:00am 1.3 -1.6 1.3 100 0.0 E 6 9 3 5 1029.2 1029.2 0.2
24/02:30am 2.1 -1.3 1.8 98 0.1 E 9 9 5 5 1029.4 1029.4 0.2
24/02:00am 1.5 -0.3 1.2 98 0.1 CALM 0 0 0 0 1029.7 1029.7 0.2
24/01:30am 2.0 0.3 1.7 98 0.1 CALM 0 2 0 1 1029.7 1029.7 0.2
24/01:00am 2.9 0.0 2.4 96 0.2 E 7 7 4 4 1029.5 1029.5 0.2
24/12:30am 2.6 -0.8 2.1 96 0.2 ESE 9 11 5 6 1029.7 1029.7 0.2
24/12:00am 2.2 -0.3 1.7 96 0.2 WSW 4 6 2 3 1030.1 1030.1 0.2
 
Date/Time
CST
Temp
°C
App
Temp
°C
Dew
Point
Rel
Hum
%
Delta-T
°C
Wind Press
QNH
hPa
Press
MSL
hPa
Rain
since 9 am
mm
Dir
 
Spd
km/h
Gust
km/h
Spd
kts
Gust
kts
23/11:30pm 2.1 -0.8 1.6 96 0.2 WSW 6 9 3 5 1030.3 1030.3 0.2
23/11:00pm 2.1 0.4 1.8 98 0.1 CALM 0 0 0 0 1030.3 1030.3 0.2
23/10:30pm 2.3 0.6 1.8 96 0.2 CALM 0 0 0 0 1030.3 1030.3 0.2
23/10:00pm 3.2 1.6 2.4 94 0.3 CALM 0 0 0 0 1030.4 1030.4 0.2
23/09:30pm 4.9 2.2 3.9 93 0.4 ESE 7 9 4 5 1030.4 1030.4 0.2
23/09:00pm 3.8 2.3 2.8 93 0.4 CALM 0 0 0 0 1030.5 1030.5 0.2
23/08:30pm 3.9 1.6 2.9 93 0.4 ESE 4 7 2 4 1030.6 1030.6 0.2
23/08:00pm 4.8 3.4 3.3 90 0.6 CALM 0 0 0 0 1030.7 1030.7 0.2
23/07:30pm 5.8 3.4 4.1 89 0.7 ESE 6 7 3 4 1030.7 1030.7 0.2
23/07:00pm 7.3 4.6 5.7 89 0.7 SE 9 11 5 6 1030.7 1030.7 0.2
23/06:30pm 6.6 4.3 4.7 88 0.8 SSW 6 7 3 4 1030.7 1030.7 0.2
23/06:00pm 7.6 5.4 5.1 84 1.1 SSW 6 7 3 4 1030.7 1030.7 0.2
23/05:30pm 9.1 6.9 6.0 81 1.4 SW 7 9 4 5 1030.6 1030.6 0.2
23/05:00pm 10.8 8.5 5.8 71 2.3 SW 7 9 4 5 1030.5 1030.5 0.2
23/04:30pm 11.7 9.4 5.9 67 2.7 SW 7 11 4 6 1030.5 1030.5 0.2
23/04:00pm 12.5 9.9 5.9 64 3.1 SW 9 13 5 7 1030.6 1030.6 0.2
23/03:30pm 12.7 10.0 5.6 62 3.3 WSW 9 13 5 7 1030.6 1030.6 0.2
23/03:00pm 13.2 11.1 5.7 60 3.5 E 6 9 3 5 1030.7 1030.7 0.2
23/02:30pm 13.3 11.9 5.6 59 3.6 SW 2 7 1 4 1030.7 1030.7 0.2
23/02:00pm 13.2 11.9 6.0 61 3.4 S 2 7 1 4 1030.7 1030.7 0.2
23/01:30pm 12.5 10.2 5.9 64 3.1 SSE 7 11 4 6 1031.1 1031.1 0.2
23/01:00pm 12.3 9.9 5.1 61 3.3 SSW 7 13 4 7 1031.5 1031.5 0.2
23/12:30pm 12.6 10.8 5.2 60 3.4 NNE 4 7 2 4 1031.7 1031.7 0.2
23/12:00pm 11.5 9.1 5.1 65 2.9 SE 7 13 4 7 1032.0 1032.0 0.2
23/11:30am 11.6 9.3 5.5 66 2.8 E 7 11 4 6 1032.4 1032.4 0.0
23/11:00am 10.8 8.0 5.3 69 2.5 E 9 13 5 7 1032.8 1032.8 0.0
23/10:30am 10.1 6.9 5.2 71 2.2 ESE 11 15 6 8 1033.2 1033.3 0.0
23/10:00am 9.6 5.9 4.6 71 2.2 ESE 13 19 7 10 1033.4 1033.5 0.0
23/09:30am 9.1 5.9 5.3 77 1.7 SE 11 15 6 8 1033.6 1033.7 0.0
23/09:00am 7.3 5.9 5.3 87 0.9 SSE 2 7 1 4 1033.9 1034.0 0.0
23/08:30am 5.7 4.5 4.5 92 0.5 CALM 0 6 0 3 1034.0 1034.1 0.0
23/08:00am 3.5 1.6 2.7 94 0.3 SE 2 6 1 3 1033.6 1033.7 0.0
23/07:30am 1.2 -1.8 0.7 96 0.2 SE 6 7 3 4 1033.3 1033.4 0.0
23/07:00am 1.3 -1.9 0.5 94 0.3 SE 7 7 4 4 1033.1 1033.2 0.0
23/06:30am 1.2 -1.8 0.7 96 0.2 SE 6 9 3 5 1033.0 1033.0 0.0
23/06:00am 2.1 -0.4 1.3 94 0.3 SSE 4 7 2 4 1032.7 1032.7 0.0
23/05:30am 2.6 0.9 1.6 93 0.4 CALM 0 0 0 0 1032.6 1032.6 0.0
23/05:00am 3.4 1.7 2.1 91 0.5 CALM 0 0 0 0 1032.4 1032.4 0.0
23/04:30am 5.3 3.6 3.9 91 0.6 SSE 2 6 1 3 1032.4 1032.4 0.0
23/04:00am 6.8 3.9 4.7 86 0.9 SSE 9 13 5 7 1032.2 1032.2 0.0
23/03:30am 6.2 3.6 4.3 88 0.8 SSW 7 9 4 5 1032.1 1032.1 0.0
23/03:00am 6.4 3.8 4.3 86 0.9 SW 7 11 4 6 1032.2 1032.2 0.0
23/02:30am 5.9 4.6 4.0 88 0.8 CALM 0 0 0 0 1032.4 1032.4 0.0
23/02:00am 6.2 4.8 3.8 85 1.0 CALM 0 0 0 0 1032.5 1032.5 0.0
23/01:30am 7.5 5.0 4.5 81 1.3 SE 7 7 4 4 1032.5 1032.5 0.0
23/01:00am 8.9 5.9 4.3 73 2.0 SE 9 15 5 8 1032.5 1032.5 0.0
23/12:30am 9.2 5.9 4.7 73 2.0 SE 11 15 6 8 1032.6 1032.6 0.0
23/12:00am 9.6 5.9 4.4 70 2.3 SE 13 20 7 11 1032.8 1032.8 0.0
 
Date/Time
CST
Temp
°C
App
Temp
°C
Dew
Point
Rel
Hum
%
Delta-T
°C
Wind Press
QNH
hPa
Press
MSL
hPa
Rain
since 9 am
mm
Dir
 
Spd
km/h
Gust
km/h
Spd
kts
Gust
kts
22/11:30pm 9.7 6.0 4.2 68 2.4 SE 13 19 7 10 1032.8 1032.8 0.0
22/11:00pm 9.7 6.4 4.7 71 2.2 ESE 11 19 6 10 1032.9 1032.9 0.0
22/10:30pm 9.9 5.8 4.5 69 2.4 ESE 15 22 8 12 1032.9 1032.9 0.0
22/10:00pm 9.9 5.8 4.5 69 2.4 SE 15 20 8 11 1032.9 1032.9 0.0
22/09:30pm 10.3 5.8 4.4 67 2.6 SE 17 28 9 15 1032.8 1032.8 0.0
22/09:00pm 10.3 5.5 4.7 68 2.5 SE 19 26 10 14 1033.0 1033.0 0.0
22/08:30pm 10.4 5.5 4.3 66 2.7 SE 19 28 10 15 1033.1 1033.2 0.0
22/08:00pm 10.4 5.6 4.6 67 2.6 ESE 19 30 10 16 1032.9 1032.9 0.0
22/07:30pm 10.6 6.6 4.8 67 2.6 SE 15 20 8 11 1032.9 1032.9 0.0

Other Formats:

Comma delimited format used in spreadsheet applications
http://www.bom.gov.au/fwo/IDS60801/IDS60801.94817.axf

JavaScript Object Notation format (JSON) in row-major order
http://www.bom.gov.au/fwo/IDS60801/IDS60801.94817.json